sensor_id;sensor_type;location;lat;lon;timestamp;P1;durP1;ratioP1;P2;durP2;ratioP2
35506;SDS011;36461;52.018;21.036;2023-06-01T00:02:20;11.90;;;6.70;;
35506;SDS011;36461;52.018;21.036;2023-06-01T00:04:48;12.30;;;6.50;;
35506;SDS011;36461;52.018;21.036;2023-06-01T00:07:17;9.60;;;6.20;;
35506;SDS011;36461;52.018;21.036;2023-06-01T00:09:45;12.70;;;6.80;;
35506;SDS011;36461;52.018;21.036;2023-06-01T00:12:13;11.80;;;6.50;;
35506;SDS011;36461;52.018;21.036;2023-06-01T00:14:42;11.90;;;6.30;;
35506;SDS011;36461;52.018;21.036;2023-06-01T00:17:10;12.80;;;6.20;;
35506;SDS011;36461;52.018;21.036;2023-06-01T00:19:38;9.70;;;6.20;;
35506;SDS011;36461;52.018;21.036;2023-06-01T00:22:06;12.00;;;6.40;;
35506;SDS011;36461;52.018;21.036;2023-06-01T00:24:37;13.70;;;6.80;;
35506;SDS011;36461;52.018;21.036;2023-06-01T00:27:05;11.40;;;7.00;;
35506;SDS011;36461;52.018;21.036;2023-06-01T00:29:35;11.40;;;6.20;;
35506;SDS011;36461;52.018;21.036;2023-06-01T00:32:03;9.40;;;6.10;;
35506;SDS011;36461;52.018;21.036;2023-06-01T00:34:31;10.60;;;6.10;;
35506;SDS011;36461;52.018;21.036;2023-06-01T00:37:00;11.10;;;6.30;;
35506;SDS011;36461;52.018;21.036;2023-06-01T00:39:28;10.60;;;6.20;;
35506;SDS011;36461;52.018;21.036;2023-06-01T00:41:56;9.80;;;6.10;;
35506;SDS011;36461;52.018;21.036;2023-06-01T00:44:25;9.70;;;5.80;;
35506;SDS011;36461;52.018;21.036;2023-06-01T00:46:53;8.50;;;5.70;;
35506;SDS011;36461;52.018;21.036;2023-06-01T00:49:21;10.00;;;6.20;;
35506;SDS011;36461;52.018;21.036;2023-06-01T00:51:50;8.00;;;5.30;;
35506;SDS011;36461;52.018;21.036;2023-06-01T00:54:18;8.40;;;5.30;;
35506;SDS011;36461;52.018;21.036;2023-06-01T00:56:47;7.50;;;4.90;;
35506;SDS011;36461;52.018;21.036;2023-06-01T00:59:16;10.60;;;6.10;;
35506;SDS011;36461;52.018;21.036;2023-06-01T01:01:44;8.70;;;5.40;;
35506;SDS011;36461;52.018;21.036;2023-06-01T01:04:12;9.00;;;5.30;;
35506;SDS011;36461;52.018;21.036;2023-06-01T01:06:49;11.90;;;5.80;;
35506;SDS011;36461;52.018;21.036;2023-06-01T01:12:45;10.50;;;5.40;;
35506;SDS011;36461;52.018;21.036;2023-06-01T01:15:23;9.80;;;5.60;;
35506;SDS011;36461;52.018;21.036;2023-06-01T01:17:59;10.30;;;6.00;;
35506;SDS011;36461;52.018;21.036;2023-06-01T01:20:38;10.90;;;5.70;;
35506;SDS011;36461;52.018;21.036;2023-06-01T01:28:58;9.70;;;5.80;;
35506;SDS011;36461;52.018;21.036;2023-06-01T01:31:30;10.10;;;5.60;;
35506;SDS011;36461;52.018;21.036;2023-06-01T01:34:01;9.60;;;5.50;;
35506;SDS011;36461;52.018;21.036;2023-06-01T01:36:31;10.00;;;6.10;;
35506;SDS011;36461;52.018;21.036;2023-06-01T01:39:00;9.10;;;5.40;;
35506;SDS011;36461;52.018;21.036;2023-06-01T01:41:29;11.00;;;6.10;;
35506;SDS011;36461;52.018;21.036;2023-06-01T01:43:57;11.40;;;6.30;;
35506;SDS011;36461;52.018;21.036;2023-06-01T01:46:30;12.20;;;6.60;;
35506;SDS011;36461;52.018;21.036;2023-06-01T01:54:46;9.90;;;6.10;;
35506;SDS011;36461;52.018;21.036;2023-06-01T01:57:17;9.30;;;5.30;;
35506;SDS011;36461;52.018;21.036;2023-06-01T01:59:46;8.50;;;5.90;;
35506;SDS011;36461;52.018;21.036;2023-06-01T02:02:14;10.20;;;5.50;;
35506;SDS011;36461;52.018;21.036;2023-06-01T02:04:43;9.90;;;5.40;;
35506;SDS011;36461;52.018;21.036;2023-06-01T02:07:14;8.30;;;5.50;;
35506;SDS011;36461;52.018;21.036;2023-06-01T02:09:42;9.10;;;5.40;;
35506;SDS011;36461;52.018;21.036;2023-06-01T02:12:12;9.00;;;5.30;;
35506;SDS011;36461;52.018;21.036;2023-06-01T02:14:43;8.00;;;5.00;;
35506;SDS011;36461;52.018;21.036;2023-06-01T02:17:15;9.00;;;5.20;;
35506;SDS011;36461;52.018;21.036;2023-06-01T02:19:47;6.70;;;4.40;;
35506;SDS011;36461;52.018;21.036;2023-06-01T02:22:18;7.70;;;5.00;;
35506;SDS011;36461;52.018;21.036;2023-06-01T02:24:50;8.00;;;5.00;;
35506;SDS011;36461;52.018;21.036;2023-06-01T02:27:21;8.00;;;5.30;;
35506;SDS011;36461;52.018;21.036;2023-06-01T02:29:53;8.10;;;4.90;;
35506;SDS011;36461;52.018;21.036;2023-06-01T02:32:24;10.20;;;5.40;;
35506;SDS011;36461;52.018;21.036;2023-06-01T02:34:57;9.10;;;5.70;;
35506;SDS011;36461;52.018;21.036;2023-06-01T02:37:29;7.60;;;4.90;;
35506;SDS011;36461;52.018;21.036;2023-06-01T02:40:00;9.40;;;6.10;;
35506;SDS011;36461;52.018;21.036;2023-06-01T02:42:33;11.40;;;6.10;;
35506;SDS011;36461;52.018;21.036;2023-06-01T02:45:05;9.20;;;5.90;;
35506;SDS011;36461;52.018;21.036;2023-06-01T02:47:37;9.70;;;6.10;;
35506;SDS011;36461;52.018;21.036;2023-06-01T02:50:09;11.40;;;6.20;;
35506;SDS011;36461;52.018;21.036;2023-06-01T02:52:42;8.10;;;5.30;;
35506;SDS011;36461;52.018;21.036;2023-06-01T02:55:14;10.50;;;6.10;;
35506;SDS011;36461;52.018;21.036;2023-06-01T02:57:54;7.60;;;4.70;;
35506;SDS011;36461;52.018;21.036;2023-06-01T03:00:25;11.50;;;5.20;;
35506;SDS011;36461;52.018;21.036;2023-06-01T03:02:57;8.30;;;5.50;;
35506;SDS011;36461;52.018;21.036;2023-06-01T03:05:29;6.70;;;4.80;;
35506;SDS011;36461;52.018;21.036;2023-06-01T03:08:21;8.60;;;5.00;;
35506;SDS011;36461;52.018;21.036;2023-06-01T03:18:32;7.60;;;5.20;;
35506;SDS011;36461;52.018;21.036;2023-06-01T03:21:03;6.50;;;4.70;;
35506;SDS011;36461;52.018;21.036;2023-06-01T03:23:31;8.30;;;5.20;;
35506;SDS011;36461;52.018;21.036;2023-06-01T03:25:59;7.50;;;4.60;;
35506;SDS011;36461;52.018;21.036;2023-06-01T03:28:29;6.70;;;4.20;;
35506;SDS011;36461;52.018;21.036;2023-06-01T03:30:57;8.60;;;4.20;;
35506;SDS011;36461;52.018;21.036;2023-06-01T03:33:27;6.00;;;4.20;;
35506;SDS011;36461;52.018;21.036;2023-06-01T03:35:55;6.60;;;3.90;;
35506;SDS011;36461;52.018;21.036;2023-06-01T03:38:24;5.50;;;4.00;;
35506;SDS011;36461;52.018;21.036;2023-06-01T03:40:52;6.30;;;3.60;;
35506;SDS011;36461;52.018;21.036;2023-06-01T03:43:20;7.20;;;4.20;;
35506;SDS011;36461;52.018;21.036;2023-06-01T03:45:48;5.50;;;3.60;;
35506;SDS011;36461;52.018;21.036;2023-06-01T03:48:17;6.00;;;3.80;;
35506;SDS011;36461;52.018;21.036;2023-06-01T03:50:45;8.00;;;3.80;;
35506;SDS011;36461;52.018;21.036;2023-06-01T03:53:14;6.30;;;3.80;;
35506;SDS011;36461;52.018;21.036;2023-06-01T03:55:42;6.30;;;4.10;;
35506;SDS011;36461;52.018;21.036;2023-06-01T03:58:27;6.90;;;4.40;;
35506;SDS011;36461;52.018;21.036;2023-06-01T04:00:55;6.50;;;4.20;;
35506;SDS011;36461;52.018;21.036;2023-06-01T04:03:25;9.80;;;4.70;;
35506;SDS011;36461;52.018;21.036;2023-06-01T04:05:54;5.90;;;3.70;;
35506;SDS011;36461;52.018;21.036;2023-06-01T04:08:27;7.00;;;4.00;;
35506;SDS011;36461;52.018;21.036;2023-06-01T04:10:55;5.80;;;3.50;;
35506;SDS011;36461;52.018;21.036;2023-06-01T04:13:24;5.80;;;3.90;;
35506;SDS011;36461;52.018;21.036;2023-06-01T04:15:55;6.10;;;3.80;;
35506;SDS011;36461;52.018;21.036;2023-06-01T04:18:23;4.40;;;3.20;;
35506;SDS011;36461;52.018;21.036;2023-06-01T04:20:56;4.50;;;3.10;;
35506;SDS011;36461;52.018;21.036;2023-06-01T04:23:24;6.80;;;3.80;;
35506;SDS011;36461;52.018;21.036;2023-06-01T04:25:53;5.20;;;2.90;;
35506;SDS011;36461;52.018;21.036;2023-06-01T04:28:29;5.70;;;3.20;;
35506;SDS011;36461;52.018;21.036;2023-06-01T04:31:00;5.90;;;3.50;;
35506;SDS011;36461;52.018;21.036;2023-06-01T04:33:30;5.60;;;3.20;;
35506;SDS011;36461;52.018;21.036;2023-06-01T04:35:59;5.20;;;3.00;;
35506;SDS011;36461;52.018;21.036;2023-06-01T04:38:30;5.10;;;3.20;;
35506;SDS011;36461;52.018;21.036;2023-06-01T04:41:00;4.40;;;3.30;;
35506;SDS011;36461;52.018;21.036;2023-06-01T04:43:28;6.10;;;3.10;;
35506;SDS011;36461;52.018;21.036;2023-06-01T04:45:57;4.30;;;3.10;;
35506;SDS011;36461;52.018;21.036;2023-06-01T04:48:31;6.50;;;2.90;;
35506;SDS011;36461;52.018;21.036;2023-06-01T04:51:01;5.50;;;3.10;;
35506;SDS011;36461;52.018;21.036;2023-06-01T04:53:32;5.50;;;3.30;;
35506;SDS011;36461;52.018;21.036;2023-06-01T04:56:00;4.80;;;3.30;;
35506;SDS011;36461;52.018;21.036;2023-06-01T04:58:28;4.70;;;3.00;;
35506;SDS011;36461;52.018;21.036;2023-06-01T05:00:57;5.20;;;2.90;;
35506;SDS011;36461;52.018;21.036;2023-06-01T05:03:26;6.00;;;3.10;;
35506;SDS011;36461;52.018;21.036;2023-06-01T05:05:54;5.50;;;3.00;;
35506;SDS011;36461;52.018;21.036;2023-06-01T05:08:23;7.90;;;3.40;;
35506;SDS011;36461;52.018;21.036;2023-06-01T05:10:52;7.50;;;3.20;;
35506;SDS011;36461;52.018;21.036;2023-06-01T05:13:20;4.30;;;3.20;;
35506;SDS011;36461;52.018;21.036;2023-06-01T05:15:48;4.80;;;3.10;;
35506;SDS011;36461;52.018;21.036;2023-06-01T05:18:17;5.00;;;3.20;;
35506;SDS011;36461;52.018;21.036;2023-06-01T05:20:45;6.90;;;3.30;;
35506;SDS011;36461;52.018;21.036;2023-06-01T05:23:15;4.00;;;2.90;;
35506;SDS011;36461;52.018;21.036;2023-06-01T05:25:45;4.10;;;2.90;;
35506;SDS011;36461;52.018;21.036;2023-06-01T05:28:14;6.40;;;3.20;;
35506;SDS011;36461;52.018;21.036;2023-06-01T05:30:43;4.50;;;2.70;;
35506;SDS011;36461;52.018;21.036;2023-06-01T05:33:11;7.20;;;3.00;;
35506;SDS011;36461;52.018;21.036;2023-06-01T05:35:39;5.30;;;2.80;;
35506;SDS011;36461;52.018;21.036;2023-06-01T05:38:12;4.00;;;2.70;;
35506;SDS011;36461;52.018;21.036;2023-06-01T05:40:40;4.40;;;2.30;;
35506;SDS011;36461;52.018;21.036;2023-06-01T05:43:09;6.70;;;2.80;;
35506;SDS011;36461;52.018;21.036;2023-06-01T05:45:37;6.70;;;2.80;;
35506;SDS011;36461;52.018;21.036;2023-06-01T05:48:05;5.40;;;2.70;;
35506;SDS011;36461;52.018;21.036;2023-06-01T05:50:34;6.10;;;2.60;;
35506;SDS011;36461;52.018;21.036;2023-06-01T05:53:03;9.00;;;2.60;;
35506;SDS011;36461;52.018;21.036;2023-06-01T05:55:31;4.20;;;2.90;;
35506;SDS011;36461;52.018;21.036;2023-06-01T05:57:59;4.50;;;2.50;;
35506;SDS011;36461;52.018;21.036;2023-06-01T06:00:28;5.20;;;2.60;;
35506;SDS011;36461;52.018;21.036;2023-06-01T06:02:57;4.10;;;2.30;;
35506;SDS011;36461;52.018;21.036;2023-06-01T06:05:27;4.20;;;2.50;;
35506;SDS011;36461;52.018;21.036;2023-06-01T06:07:56;3.50;;;2.40;;
35506;SDS011;36461;52.018;21.036;2023-06-01T06:10:24;5.80;;;2.30;;
35506;SDS011;36461;52.018;21.036;2023-06-01T06:12:52;4.40;;;2.40;;
35506;SDS011;36461;52.018;21.036;2023-06-01T06:15:20;5.60;;;2.60;;
35506;SDS011;36461;52.018;21.036;2023-06-01T06:17:49;5.30;;;2.40;;
35506;SDS011;36461;52.018;21.036;2023-06-01T06:20:17;5.20;;;2.40;;
35506;SDS011;36461;52.018;21.036;2023-06-01T06:22:52;5.40;;;2.30;;
35506;SDS011;36461;52.018;21.036;2023-06-01T06:25:21;4.30;;;2.40;;
35506;SDS011;36461;52.018;21.036;2023-06-01T06:27:50;4.00;;;2.30;;
35506;SDS011;36461;52.018;21.036;2023-06-01T06:30:18;6.60;;;2.60;;
35506;SDS011;36461;52.018;21.036;2023-06-01T06:32:46;4.70;;;2.20;;
35506;SDS011;36461;52.018;21.036;2023-06-01T06:35:14;6.30;;;2.50;;
35506;SDS011;36461;52.018;21.036;2023-06-01T06:37:42;4.30;;;2.00;;
35506;SDS011;36461;52.018;21.036;2023-06-01T06:40:11;7.30;;;2.40;;
35506;SDS011;36461;52.018;21.036;2023-06-01T06:42:39;6.20;;;2.50;;
35506;SDS011;36461;52.018;21.036;2023-06-01T06:45:08;5.10;;;2.70;;
35506;SDS011;36461;52.018;21.036;2023-06-01T06:47:38;3.50;;;2.20;;
35506;SDS011;36461;52.018;21.036;2023-06-01T06:50:06;4.50;;;2.50;;
35506;SDS011;36461;52.018;21.036;2023-06-01T06:52:35;4.40;;;2.40;;
35506;SDS011;36461;52.018;21.036;2023-06-01T06:55:03;4.80;;;2.20;;
35506;SDS011;36461;52.018;21.036;2023-06-01T06:57:31;5.70;;;2.50;;
35506;SDS011;36461;52.018;21.036;2023-06-01T06:59:59;3.30;;;2.30;;
35506;SDS011;36461;52.018;21.036;2023-06-01T07:02:28;3.60;;;2.20;;
35506;SDS011;36461;52.018;21.036;2023-06-01T07:04:56;5.00;;;2.40;;
35506;SDS011;36461;52.018;21.036;2023-06-01T07:07:24;3.00;;;2.10;;
35506;SDS011;36461;52.018;21.036;2023-06-01T07:09:51;4.70;;;2.40;;
35506;SDS011;36461;52.018;21.036;2023-06-01T07:12:20;3.00;;;2.30;;
35506;SDS011;36461;52.018;21.036;2023-06-01T07:14:48;4.20;;;2.20;;
35506;SDS011;36461;52.018;21.036;2023-06-01T07:17:19;4.90;;;2.60;;
35506;SDS011;36461;52.018;21.036;2023-06-01T07:19:47;4.60;;;2.20;;
35506;SDS011;36461;52.018;21.036;2023-06-01T07:22:16;4.50;;;2.40;;
35506;SDS011;36461;52.018;21.036;2023-06-01T07:24:44;4.10;;;2.20;;
35506;SDS011;36461;52.018;21.036;2023-06-01T07:27:12;4.00;;;2.20;;
35506;SDS011;36461;52.018;21.036;2023-06-01T07:29:41;5.70;;;2.50;;
35506;SDS011;36461;52.018;21.036;2023-06-01T07:32:12;3.00;;;2.20;;
35506;SDS011;36461;52.018;21.036;2023-06-01T07:34:40;3.80;;;2.20;;
35506;SDS011;36461;52.018;21.036;2023-06-01T07:37:08;2.80;;;2.30;;
35506;SDS011;36461;52.018;21.036;2023-06-01T07:39:44;3.20;;;2.20;;
35506;SDS011;36461;52.018;21.036;2023-06-01T07:42:12;3.70;;;1.90;;
35506;SDS011;36461;52.018;21.036;2023-06-01T07:44:40;4.20;;;2.20;;
35506;SDS011;36461;52.018;21.036;2023-06-01T07:47:08;2.80;;;2.00;;
35506;SDS011;36461;52.018;21.036;2023-06-01T07:49:37;5.20;;;2.60;;
35506;SDS011;36461;52.018;21.036;2023-06-01T07:52:05;3.70;;;2.20;;
35506;SDS011;36461;52.018;21.036;2023-06-01T07:54:36;3.70;;;1.90;;
35506;SDS011;36461;52.018;21.036;2023-06-01T07:57:06;5.70;;;2.80;;
35506;SDS011;36461;52.018;21.036;2023-06-01T07:59:35;3.60;;;2.20;;
35506;SDS011;36461;52.018;21.036;2023-06-01T08:02:03;3.50;;;1.90;;
35506;SDS011;36461;52.018;21.036;2023-06-01T08:04:32;4.70;;;2.20;;
35506;SDS011;36461;52.018;21.036;2023-06-01T08:07:03;3.60;;;2.10;;
35506;SDS011;36461;52.018;21.036;2023-06-01T08:09:38;6.20;;;2.30;;
35506;SDS011;36461;52.018;21.036;2023-06-01T08:12:06;2.80;;;1.90;;
35506;SDS011;36461;52.018;21.036;2023-06-01T08:14:35;4.80;;;2.20;;
35506;SDS011;36461;52.018;21.036;2023-06-01T08:17:03;3.80;;;2.50;;
35506;SDS011;36461;52.018;21.036;2023-06-01T08:19:35;3.90;;;2.40;;
35506;SDS011;36461;52.018;21.036;2023-06-01T08:22:03;5.80;;;2.20;;
35506;SDS011;36461;52.018;21.036;2023-06-01T08:24:35;3.10;;;2.20;;
35506;SDS011;36461;52.018;21.036;2023-06-01T08:27:15;5.70;;;2.30;;
35506;SDS011;36461;52.018;21.036;2023-06-01T08:29:52;5.10;;;2.10;;
35506;SDS011;36461;52.018;21.036;2023-06-01T08:32:22;3.80;;;2.20;;
35506;SDS011;36461;52.018;21.036;2023-06-01T08:34:50;7.90;;;2.40;;
35506;SDS011;36461;52.018;21.036;2023-06-01T08:37:18;3.40;;;2.50;;
35506;SDS011;36461;52.018;21.036;2023-06-01T08:39:46;5.60;;;2.30;;
35506;SDS011;36461;52.018;21.036;2023-06-01T08:42:24;4.90;;;2.20;;
35506;SDS011;36461;52.018;21.036;2023-06-01T08:45:07;7.90;;;2.20;;
35506;SDS011;36461;52.018;21.036;2023-06-01T08:47:35;5.40;;;2.70;;
35506;SDS011;36461;52.018;21.036;2023-06-01T08:50:05;5.60;;;2.70;;
35506;SDS011;36461;52.018;21.036;2023-06-01T08:52:34;5.40;;;2.40;;
35506;SDS011;36461;52.018;21.036;2023-06-01T08:55:04;3.80;;;2.20;;
35506;SDS011;36461;52.018;21.036;2023-06-01T08:57:32;2.60;;;2.10;;
35506;SDS011;36461;52.018;21.036;2023-06-01T09:00:00;4.70;;;2.00;;
35506;SDS011;36461;52.018;21.036;2023-06-01T09:02:28;2.80;;;1.90;;
35506;SDS011;36461;52.018;21.036;2023-06-01T09:04:56;4.00;;;2.30;;
35506;SDS011;36461;52.018;21.036;2023-06-01T09:07:24;4.90;;;2.20;;
35506;SDS011;36461;52.018;21.036;2023-06-01T09:09:54;2.50;;;1.90;;
35506;SDS011;36461;52.018;21.036;2023-06-01T09:12:28;3.10;;;2.20;;
35506;SDS011;36461;52.018;21.036;2023-06-01T09:15:07;3.20;;;2.30;;
35506;SDS011;36461;52.018;21.036;2023-06-01T09:17:38;8.20;;;2.30;;
35506;SDS011;36461;52.018;21.036;2023-06-01T09:20:11;3.40;;;2.40;;
35506;SDS011;36461;52.018;21.036;2023-06-01T09:22:42;2.60;;;2.10;;
35506;SDS011;36461;52.018;21.036;2023-06-01T09:25:11;2.90;;;2.00;;
35506;SDS011;36461;52.018;21.036;2023-06-01T09:27:48;3.10;;;2.30;;
35506;SDS011;36461;52.018;21.036;2023-06-01T09:30:19;4.80;;;2.20;;
35506;SDS011;36461;52.018;21.036;2023-06-01T09:32:49;3.90;;;2.40;;
35506;SDS011;36461;52.018;21.036;2023-06-01T09:38:07;4.60;;;2.50;;
35506;SDS011;36461;52.018;21.036;2023-06-01T09:40:37;3.30;;;2.10;;
35506;SDS011;36461;52.018;21.036;2023-06-01T09:43:23;5.10;;;2.30;;
35506;SDS011;36461;52.018;21.036;2023-06-01T09:46:04;2.60;;;1.90;;
35506;SDS011;36461;52.018;21.036;2023-06-01T09:48:33;3.00;;;2.00;;
35506;SDS011;36461;52.018;21.036;2023-06-01T09:51:01;4.10;;;2.40;;
35506;SDS011;36461;52.018;21.036;2023-06-01T09:53:39;2.70;;;2.20;;
35506;SDS011;36461;52.018;21.036;2023-06-01T09:56:08;4.80;;;2.20;;
35506;SDS011;36461;52.018;21.036;2023-06-01T09:58:37;3.80;;;2.00;;
35506;SDS011;36461;52.018;21.036;2023-06-01T10:01:08;3.80;;;2.10;;
35506;SDS011;36461;52.018;21.036;2023-06-01T10:03:40;3.50;;;1.90;;
35506;SDS011;36461;52.018;21.036;2023-06-01T10:06:12;3.80;;;2.30;;
35506;SDS011;36461;52.018;21.036;2023-06-01T10:08:42;4.70;;;2.10;;
35506;SDS011;36461;52.018;21.036;2023-06-01T10:11:10;5.80;;;2.40;;
35506;SDS011;36461;52.018;21.036;2023-06-01T10:13:39;3.90;;;2.30;;
35506;SDS011;36461;52.018;21.036;2023-06-01T10:16:09;3.90;;;2.00;;
35506;SDS011;36461;52.018;21.036;2023-06-01T10:18:40;2.80;;;2.20;;
35506;SDS011;36461;52.018;21.036;2023-06-01T10:21:09;4.10;;;2.10;;
35506;SDS011;36461;52.018;21.036;2023-06-01T10:23:37;4.60;;;2.20;;
35506;SDS011;36461;52.018;21.036;2023-06-01T10:26:06;5.90;;;2.60;;
35506;SDS011;36461;52.018;21.036;2023-06-01T10:28:43;3.30;;;2.00;;
35506;SDS011;36461;52.018;21.036;2023-06-01T10:34:08;3.30;;;2.10;;
35506;SDS011;36461;52.018;21.036;2023-06-01T10:39:31;3.40;;;2.30;;
35506;SDS011;36461;52.018;21.036;2023-06-01T10:52:32;2.40;;;1.90;;
35506;SDS011;36461;52.018;21.036;2023-06-01T10:57:33;2.90;;;2.20;;
35506;SDS011;36461;52.018;21.036;2023-06-01T11:08:00;5.00;;;2.10;;
35506;SDS011;36461;52.018;21.036;2023-06-01T11:13:19;5.00;;;2.20;;
35506;SDS011;36461;52.018;21.036;2023-06-01T11:21:19;4.60;;;2.30;;
35506;SDS011;36461;52.018;21.036;2023-06-01T11:23:49;3.60;;;2.00;;
35506;SDS011;36461;52.018;21.036;2023-06-01T11:26:19;3.80;;;2.00;;
35506;SDS011;36461;52.018;21.036;2023-06-01T11:28:49;3.50;;;2.10;;
35506;SDS011;36461;52.018;21.036;2023-06-01T11:31:18;3.00;;;2.10;;
35506;SDS011;36461;52.018;21.036;2023-06-01T11:33:53;2.40;;;1.80;;
35506;SDS011;36461;52.018;21.036;2023-06-01T11:36:25;3.80;;;2.10;;
35506;SDS011;36461;52.018;21.036;2023-06-01T11:38:54;2.90;;;2.00;;
35506;SDS011;36461;52.018;21.036;2023-06-01T11:41:39;2.90;;;2.00;;
35506;SDS011;36461;52.018;21.036;2023-06-01T11:44:07;4.30;;;2.10;;
35506;SDS011;36461;52.018;21.036;2023-06-01T11:46:35;3.90;;;2.00;;
35506;SDS011;36461;52.018;21.036;2023-06-01T11:49:05;3.70;;;2.10;;
35506;SDS011;36461;52.018;21.036;2023-06-01T11:51:37;3.10;;;1.90;;
35506;SDS011;36461;52.018;21.036;2023-06-01T11:54:10;2.70;;;2.00;;
35506;SDS011;36461;52.018;21.036;2023-06-01T11:56:38;3.00;;;2.10;;
35506;SDS011;36461;52.018;21.036;2023-06-01T11:59:10;4.70;;;2.10;;
35506;SDS011;36461;52.018;21.036;2023-06-01T12:01:42;4.70;;;2.40;;
35506;SDS011;36461;52.018;21.036;2023-06-01T12:04:12;2.80;;;1.80;;
35506;SDS011;36461;52.018;21.036;2023-06-01T12:06:41;5.20;;;2.20;;
35506;SDS011;36461;52.018;21.036;2023-06-01T12:09:13;4.50;;;2.30;;
35506;SDS011;36461;52.018;21.036;2023-06-01T12:11:44;3.20;;;2.20;;
35506;SDS011;36461;52.018;21.036;2023-06-01T12:14:13;5.00;;;2.40;;
35506;SDS011;36461;52.018;21.036;2023-06-01T12:16:58;2.70;;;2.00;;
35506;SDS011;36461;52.018;21.036;2023-06-01T12:19:29;3.70;;;2.50;;
35506;SDS011;36461;52.018;21.036;2023-06-01T12:22:00;5.90;;;2.70;;
35506;SDS011;36461;52.018;21.036;2023-06-01T12:24:32;5.90;;;2.80;;
35506;SDS011;36461;52.018;21.036;2023-06-01T12:27:02;3.60;;;2.40;;
35506;SDS011;36461;52.018;21.036;2023-06-01T12:29:42;6.80;;;2.50;;
35506;SDS011;36461;52.018;21.036;2023-06-01T12:32:12;3.70;;;2.60;;
35506;SDS011;36461;52.018;21.036;2023-06-01T12:34:43;4.70;;;2.40;;
35506;SDS011;36461;52.018;21.036;2023-06-01T12:37:19;4.60;;;2.60;;
35506;SDS011;36461;52.018;21.036;2023-06-01T12:39:52;3.50;;;2.10;;
35506;SDS011;36461;52.018;21.036;2023-06-01T12:42:36;3.20;;;2.50;;
35506;SDS011;36461;52.018;21.036;2023-06-01T12:45:06;3.70;;;2.50;;
35506;SDS011;36461;52.018;21.036;2023-06-01T12:47:39;3.30;;;2.40;;
35506;SDS011;36461;52.018;21.036;2023-06-01T12:50:09;5.40;;;2.40;;
35506;SDS011;36461;52.018;21.036;2023-06-01T12:52:39;4.80;;;2.50;;
35506;SDS011;36461;52.018;21.036;2023-06-01T12:55:10;4.30;;;2.40;;
35506;SDS011;36461;52.018;21.036;2023-06-01T12:57:39;4.30;;;2.30;;
35506;SDS011;36461;52.018;21.036;2023-06-01T13:00:07;4.00;;;2.50;;
35506;SDS011;36461;52.018;21.036;2023-06-01T13:02:37;4.60;;;2.70;;
35506;SDS011;36461;52.018;21.036;2023-06-01T13:05:06;3.80;;;2.40;;
35506;SDS011;36461;52.018;21.036;2023-06-01T13:07:35;4.10;;;2.70;;
35506;SDS011;36461;52.018;21.036;2023-06-01T13:10:03;4.10;;;2.90;;
35506;SDS011;36461;52.018;21.036;2023-06-01T13:12:32;3.80;;;2.40;;
35506;SDS011;36461;52.018;21.036;2023-06-01T13:15:05;4.70;;;2.60;;
35506;SDS011;36461;52.018;21.036;2023-06-01T13:17:38;3.40;;;2.20;;
35506;SDS011;36461;52.018;21.036;2023-06-01T13:20:10;5.90;;;2.90;;
35506;SDS011;36461;52.018;21.036;2023-06-01T13:22:41;4.20;;;2.50;;
35506;SDS011;36461;52.018;21.036;2023-06-01T13:25:14;4.90;;;2.40;;
35506;SDS011;36461;52.018;21.036;2023-06-01T13:27:48;3.70;;;2.30;;
35506;SDS011;36461;52.018;21.036;2023-06-01T13:30:20;4.50;;;2.70;;
35506;SDS011;36461;52.018;21.036;2023-06-01T13:32:52;5.40;;;2.50;;
35506;SDS011;36461;52.018;21.036;2023-06-01T13:35:24;6.60;;;2.50;;
35506;SDS011;36461;52.018;21.036;2023-06-01T13:37:56;3.10;;;2.80;;
35506;SDS011;36461;52.018;21.036;2023-06-01T13:40:28;3.30;;;2.60;;
35506;SDS011;36461;52.018;21.036;2023-06-01T13:42:59;4.20;;;2.60;;
35506;SDS011;36461;52.018;21.036;2023-06-01T13:45:31;3.00;;;2.50;;
35506;SDS011;36461;52.018;21.036;2023-06-01T13:48:02;4.60;;;2.50;;
35506;SDS011;36461;52.018;21.036;2023-06-01T13:50:34;3.30;;;2.70;;
35506;SDS011;36461;52.018;21.036;2023-06-01T13:53:06;5.90;;;2.90;;
35506;SDS011;36461;52.018;21.036;2023-06-01T13:55:39;4.40;;;2.70;;
35506;SDS011;36461;52.018;21.036;2023-06-01T13:58:10;4.70;;;2.50;;
35506;SDS011;36461;52.018;21.036;2023-06-01T14:00:42;4.00;;;2.50;;
35506;SDS011;36461;52.018;21.036;2023-06-01T14:03:14;4.50;;;2.50;;
35506;SDS011;36461;52.018;21.036;2023-06-01T14:05:48;4.60;;;2.40;;
35506;SDS011;36461;52.018;21.036;2023-06-01T14:08:26;6.70;;;2.70;;
35506;SDS011;36461;52.018;21.036;2023-06-01T14:10:56;5.10;;;2.40;;
35506;SDS011;36461;52.018;21.036;2023-06-01T14:21:17;3.50;;;2.50;;
35506;SDS011;36461;52.018;21.036;2023-06-01T14:23:45;4.40;;;2.40;;
35506;SDS011;36461;52.018;21.036;2023-06-01T14:26:13;5.10;;;2.70;;
35506;SDS011;36461;52.018;21.036;2023-06-01T14:28:42;3.50;;;2.60;;
35506;SDS011;36461;52.018;21.036;2023-06-01T14:31:10;5.30;;;2.80;;
35506;SDS011;36461;52.018;21.036;2023-06-01T14:33:38;3.60;;;2.30;;
35506;SDS011;36461;52.018;21.036;2023-06-01T14:36:07;4.20;;;2.60;;
35506;SDS011;36461;52.018;21.036;2023-06-01T14:38:36;7.00;;;3.00;;
35506;SDS011;36461;52.018;21.036;2023-06-01T14:41:04;5.60;;;3.00;;
35506;SDS011;36461;52.018;21.036;2023-06-01T14:43:33;3.60;;;2.50;;
35506;SDS011;36461;52.018;21.036;2023-06-01T14:46:01;3.10;;;2.20;;
35506;SDS011;36461;52.018;21.036;2023-06-01T14:48:30;5.80;;;2.60;;
35506;SDS011;36461;52.018;21.036;2023-06-01T14:50:58;3.50;;;2.50;;
35506;SDS011;36461;52.018;21.036;2023-06-01T14:53:27;5.30;;;2.60;;
35506;SDS011;36461;52.018;21.036;2023-06-01T14:55:55;3.30;;;2.20;;
35506;SDS011;36461;52.018;21.036;2023-06-01T14:58:23;5.20;;;2.40;;
35506;SDS011;36461;52.018;21.036;2023-06-01T15:00:51;4.80;;;2.30;;
35506;SDS011;36461;52.018;21.036;2023-06-01T15:03:20;4.10;;;2.40;;
35506;SDS011;36461;52.018;21.036;2023-06-01T15:05:49;2.80;;;2.30;;
35506;SDS011;36461;52.018;21.036;2023-06-01T15:08:18;4.80;;;2.10;;
35506;SDS011;36461;52.018;21.036;2023-06-01T15:10:49;4.10;;;2.80;;
35506;SDS011;36461;52.018;21.036;2023-06-01T15:13:20;6.00;;;2.50;;
35506;SDS011;36461;52.018;21.036;2023-06-01T15:15:48;3.70;;;2.40;;
35506;SDS011;36461;52.018;21.036;2023-06-01T15:18:17;4.00;;;2.40;;
35506;SDS011;36461;52.018;21.036;2023-06-01T15:20:45;5.50;;;2.50;;
35506;SDS011;36461;52.018;21.036;2023-06-01T15:23:13;4.50;;;2.40;;
35506;SDS011;36461;52.018;21.036;2023-06-01T15:33:19;4.70;;;2.60;;
35506;SDS011;36461;52.018;21.036;2023-06-01T15:35:48;7.10;;;2.50;;
35506;SDS011;36461;52.018;21.036;2023-06-01T15:38:17;7.90;;;2.40;;
35506;SDS011;36461;52.018;21.036;2023-06-01T15:40:46;6.10;;;2.80;;
35506;SDS011;36461;52.018;21.036;2023-06-01T15:43:14;4.30;;;2.20;;
35506;SDS011;36461;52.018;21.036;2023-06-01T15:45:42;6.70;;;2.60;;
35506;SDS011;36461;52.018;21.036;2023-06-01T15:48:11;3.40;;;2.40;;
35506;SDS011;36461;52.018;21.036;2023-06-01T15:50:39;5.00;;;2.40;;
35506;SDS011;36461;52.018;21.036;2023-06-01T16:00:48;6.30;;;2.40;;
35506;SDS011;36461;52.018;21.036;2023-06-01T16:03:33;5.10;;;2.40;;
35506;SDS011;36461;52.018;21.036;2023-06-01T16:06:01;7.00;;;3.00;;
35506;SDS011;36461;52.018;21.036;2023-06-01T16:08:29;3.80;;;2.50;;
35506;SDS011;36461;52.018;21.036;2023-06-01T16:10:58;10.10;;;3.20;;
35506;SDS011;36461;52.018;21.036;2023-06-01T16:13:27;5.40;;;3.00;;
35506;SDS011;36461;52.018;21.036;2023-06-01T16:15:55;3.70;;;2.70;;